.
WxDataArchive / Data Records for 2013-08-04
2013-08-03 August 2013 2013-08-05

Data Records for Sunday, 04 August 2013

Time	Temp	Chill	HIndex	Humid	Dewpt	 Wind 	HiWind	WindDir	Rain 	Barom 
-----	----	-----	------	-----	-----	------	------	-------	-----	----- 
00:00	62.1	62.1	62.1	70	52.2	0	0	---	0.00	30.039 
00:05	62.1	62.1	62.1	70	52.2	0	0	---	0.00	30.039 
00:10	62.1	62.1	62.1	70	52.2	0	1	315	0.00	30.039 
00:15	62.0	62.0	62.0	71	52.5	0	0	---	0.00	30.044 
00:20	62.0	62.0	62.0	71	52.5	0	0	---	0.00	30.044 
00:25	61.8	61.8	61.8	72	52.7	0	1	315	0.00	30.044 
00:30	61.5	61.5	61.5	72	52.4	0	0	---	0.00	30.046 
00:35	61.3	61.3	61.3	73	52.6	0	0	---	0.00	30.046 
00:40	61.2	61.2	61.2	73	52.5	0	0	---	0.00	30.046 
00:45	61.2	61.2	61.2	74	52.8	0	0	---	0.00	30.050 
00:50	61.0	61.0	61.0	74	52.6	0	1	315	0.00	30.050 
00:55	60.9	60.9	60.9	75	52.9	0	0	---	0.00	30.050 
01:00	60.7	60.7	60.7	75	52.7	0	0	---	0.00	30.051 
01:05	60.7	60.7	60.7	75	52.7	0	0	---	0.00	30.051 
01:10	60.5	60.5	60.5	75	52.5	0	1	315	0.00	30.051 
01:15	60.5	60.5	60.5	75	52.5	0	0	---	0.00	30.051 
01:20	60.4	60.4	60.4	76	52.8	0	0	---	0.00	30.051 
01:25	60.2	60.2	60.2	77	53.0	0	1	315	0.00	30.051 
01:30	60.1	60.1	60.1	77	52.9	0	1	315	0.00	30.053 
01:35	59.9	59.9	59.9	77	52.7	0	1	315	0.00	30.053 
01:40	59.8	59.8	59.8	78	52.9	0	1	315	0.00	30.053 
01:45	59.6	59.6	59.6	78	52.7	0	1	315	0.00	30.053 
01:50	59.6	59.6	59.6	78	52.7	0	1	315	0.00	30.053 
01:55	59.6	59.6	59.6	78	52.7	0	1	315	0.00	30.053 
02:00	59.5	59.5	59.5	79	53.0	0	1	315	0.00	30.057 
02:05	59.3	59.3	59.3	79	52.8	0	0	---	0.00	30.057 
02:10	59.3	59.3	59.3	79	52.8	0	0	---	0.00	30.057 
02:15	59.2	59.2	59.2	79	52.7	0	0	---	0.00	30.058 
02:20	59.2	59.2	59.2	80	53.0	0	0	---	0.00	30.058 
02:25	59.0	59.0	59.0	80	52.8	0	0	---	0.00	30.058 
02:30	58.9	58.9	58.9	80	52.7	0	0	---	0.00	30.064 
02:35	58.9	58.9	58.9	81	53.1	0	0	---	0.00	30.064 
02:40	58.7	58.7	58.7	81	52.9	0	0	---	0.00	30.064 
02:45	58.7	58.7	58.7	81	52.9	0	0	---	0.00	30.068 
02:50	58.6	58.6	58.6	81	52.8	0	0	---	0.00	30.068 
02:55	58.4	58.4	58.4	81	52.6	0	0	---	0.00	30.068 
03:00	58.4	58.4	58.4	81	52.6	0	0	---	0.00	30.071 
03:05	58.3	58.3	58.3	82	52.8	0	0	---	0.00	30.071 
03:10	58.3	58.3	58.3	82	52.8	0	0	---	0.00	30.071 
03:15	58.3	58.3	58.3	82	52.8	0	0	---	0.00	30.073 
03:20	58.1	58.1	58.1	82	52.6	0	1	315	0.00	30.073 
03:25	58.1	58.1	58.1	82	52.6	0	1	315	0.00	30.073 
03:30	58.1	58.1	58.1	83	53.0	0	0	---	0.00	30.081 
03:35	58.1	58.1	58.1	83	53.0	0	1	315	0.00	30.081 
03:40	58.0	58.0	58.0	83	52.9	0	1	315	0.00	30.081 
03:45	58.1	58.1	58.1	83	53.0	0	1	315	0.00	30.082 
03:50	58.1	58.1	58.1	83	53.0	0	1	315	0.00	30.082 
03:55	58.0	58.0	58.0	83	52.9	0	1	315	0.00	30.082 
04:00	58.0	58.0	58.0	83	52.9	0	1	315	0.00	30.086 
04:05	58.0	58.0	58.0	83	52.9	0	0	---	0.00	30.086 
04:10	57.8	57.8	57.8	83	52.7	0	0	---	0.00	30.086 
04:15	57.6	57.6	57.6	83	52.5	0	1	315	0.00	30.087 
04:20	57.6	57.6	57.6	84	52.8	0	1	315	0.00	30.087 
04:25	57.5	57.5	57.5	84	52.7	0	1	315	0.00	30.087 
04:30	57.5	57.5	57.5	84	52.7	0	1	315	0.00	30.097 
04:35	57.3	57.3	57.3	84	52.5	0	0	---	0.00	30.097 
04:40	57.2	57.2	57.2	84	52.4	0	1	315	0.00	30.097 
04:45	57.2	57.2	57.2	84	52.4	0	0	---	0.00	30.098 
04:50	57.0	57.0	57.0	85	52.5	0	0	---	0.00	30.098 
04:55	56.9	56.9	56.9	85	52.4	0	0	---	0.00	30.098 
05:00	56.7	56.7	56.7	85	52.2	0	0	---	0.00	30.099 
05:05	56.6	56.6	56.6	86	52.5	0	0	---	0.00	30.099 
05:10	56.5	56.5	56.5	86	52.4	0	0	---	0.00	30.099 
05:15	56.3	56.3	56.3	86	52.2	0	0	---	0.00	30.096 
05:20	56.2	56.2	56.2	87	52.4	0	0	---	0.00	30.096 
05:25	56.0	56.0	56.0	87	52.2	0	0	---	0.00	30.096 
05:30	55.9	55.9	55.9	87	52.1	0	0	---	0.00	30.091 
05:35	55.7	55.7	55.7	88	52.2	0	0	---	0.00	30.091 
05:40	55.7	55.7	55.7	88	52.2	0	0	---	0.00	30.091 
05:45	55.6	55.6	55.6	88	52.1	0	0	---	0.00	30.090 
05:50	55.4	55.4	55.4	88	51.9	0	0	---	0.00	30.090 
05:55	55.4	55.4	55.4	89	52.2	0	0	---	0.00	30.090 
06:00	55.3	55.3	55.3	89	52.1	0	0	---	0.00	30.092 
06:05	55.1	55.1	55.1	89	51.9	0	0	---	0.00	30.092 
06:10	55.1	55.1	55.1	89	51.9	0	0	---	0.00	30.092 
06:15	55.1	55.1	55.1	90	52.2	0	0	---	0.00	30.103 
06:20	55.0	55.0	55.0	90	52.1	0	0	---	0.00	30.103 
06:25	55.0	55.0	55.0	90	52.1	0	0	---	0.00	30.103 
06:30	55.0	55.0	55.0	90	52.1	0	0	---	0.00	30.101 
06:35	54.8	54.8	54.8	90	51.9	0	0	---	0.00	30.101 
06:40	54.8	54.8	54.8	90	51.9	0	0	---	0.00	30.101 
06:45	54.8	54.8	54.8	91	52.2	0	0	---	0.00	30.106 
06:50	55.0	55.0	55.0	91	52.4	0	0	---	0.00	30.106 
06:55	55.0	55.0	55.0	91	52.4	0	0	---	0.00	30.106 
07:00	55.0	55.0	55.0	91	52.4	0	0	---	0.00	30.107 
07:05	55.1	55.1	55.1	91	52.5	0	0	---	0.00	30.107 
07:10	55.3	55.3	55.3	91	52.7	0	0	---	0.00	30.107 
07:15	55.4	55.4	55.4	91	52.8	0	0	---	0.00	30.123 
07:20	55.6	55.6	55.6	91	53.0	0	1	315	0.00	30.123 
07:25	55.7	55.7	55.7	91	53.1	0	1	315	0.00	30.123 
07:30	56.0	56.0	56.0	90	53.1	0	1	315	0.00	30.124 
07:35	56.2	56.2	56.2	90	53.3	0	1	315	0.00	30.124 
07:40	56.3	56.3	56.3	90	53.4	0	3	338	0.00	30.124 
07:45	56.6	56.6	56.6	89	53.4	0	2	338	0.00	30.137 
07:50	56.9	56.9	56.9	89	53.7	0	2	338	0.00	30.137 
07:55	57.2	57.2	57.2	88	53.7	0	1	338	0.00	30.137 
08:00	57.5	57.5	57.5	88	54.0	0	1	338	0.00	30.138 
08:05	58.0	58.0	58.0	87	54.1	0	2	338	0.00	30.138 
08:10	58.3	58.3	58.3	86	54.1	0	1	338	0.00	30.138 
08:15	58.9	58.9	58.9	85	54.4	0	1	338	0.00	30.142 
08:20	59.5	59.5	59.5	84	54.7	0	1	338	0.00	30.142 
08:25	60.2	60.2	60.2	84	55.3	0	2	338	0.00	30.142 
08:30	60.5	60.5	60.5	81	54.6	0	2	338	0.00	30.138 
08:35	61.0	61.0	61.0	80	54.8	0	2	338	0.00	30.138 
08:40	61.8	61.8	61.8	79	55.2	0	2	338	0.00	30.138 
08:45	62.7	62.7	62.7	78	55.7	0	2	0	0.00	30.137 
08:50	63.5	63.5	63.5	75	55.4	1	5	135	0.00	30.137 
08:55	64.0	64.0	64.0	72	54.8	1	5	112	0.00	30.137 
09:00	64.3	64.3	64.3	72	55.1	0	3	112	0.00	30.145 
09:05	64.5	64.5	64.5	72	55.3	0	2	112	0.00	30.145 
09:10	64.8	64.8	64.8	72	55.6	0	2	112	0.00	30.145 
09:15	65.2	65.2	65.2	71	55.6	0	2	112	0.00	30.149 
09:20	65.5	65.5	65.5	70	55.4	0	2	112	0.00	30.149 
09:25	65.8	65.8	65.8	67	54.5	1	3	112	0.00	30.149 
09:30	65.8	65.8	65.8	69	55.3	0	2	112	0.00	30.144 
09:35	65.8	65.8	65.8	68	54.9	0	1	112	0.00	30.144 
09:40	66.3	66.3	66.3	68	55.4	0	2	112	0.00	30.144 
09:45	66.9	66.9	66.9	67	55.6	0	2	112	0.00	30.144 
09:50	67.1	67.1	67.1	65	54.9	0	3	315	0.00	30.144 
09:55	67.4	67.4	67.4	65	55.2	0	1	315	0.00	30.144 
10:00	67.4	67.4	67.4	64	54.8	1	3	135	0.00	30.146 
10:05	67.6	67.6	67.6	62	54.1	0	2	135	0.00	30.146 
10:10	67.3	67.3	67.3	63	54.3	0	3	338	0.00	30.146 
10:15	67.4	67.4	67.4	62	53.9	0	2	338	0.00	30.155 
10:20	67.8	67.8	67.8	63	54.7	0	1	338	0.00	30.155 
10:25	68.3	68.3	68.3	58	52.9	1	3	45	0.00	30.155 
10:30	68.9	68.9	68.9	62	55.3	0	2	90	0.00	30.158 
10:35	69.4	69.4	69.4	58	54.0	0	2	90	0.00	30.158 
10:40	69.8	69.8	69.8	55	52.9	0	2	90	0.00	30.158 
10:45	69.4	69.4	69.4	59	54.4	1	3	90	0.00	30.159 
10:50	69.3	69.3	69.3	57	53.4	1	3	45	0.00	30.159 
10:55	69.4	69.4	69.4	57	53.5	0	3	45	0.00	30.159 
11:00	70.1	70.1	70.1	56	53.7	1	4	90	0.00	30.161 
11:05	70.8	70.8	70.8	58	55.3	0	2	90	0.00	30.161 
11:10	70.8	70.8	70.8	58	55.3	0	2	90	0.00	30.161 
11:15	70.3	70.3	70.3	57	54.3	1	3	90	0.00	30.164 
11:20	69.8	69.8	69.8	58	54.3	1	2	0	0.00	30.164 
11:25	69.9	69.9	69.9	57	54.0	0	2	0	0.00	30.164 
11:30	70.4	70.4	70.4	56	53.9	1	3	22	0.00	30.161 
11:35	70.3	70.3	70.3	57	54.3	1	3	0	0.00	30.161 
11:40	70.3	70.3	70.3	57	54.3	0	3	0	0.00	30.161 
11:45	70.4	70.4	70.4	56	53.9	1	3	0	0.00	30.162 
11:50	70.8	70.8	70.8	57	54.8	1	2	315	0.00	30.162 
11:55	70.8	70.8	70.8	56	54.3	1	3	338	0.00	30.162 
12:00	70.8	70.8	70.8	57	54.8	1	4	338	0.00	30.156 
12:05	71.3	71.3	71.3	56	54.8	2	4	315	0.00	30.156 
12:10	70.9	70.9	70.9	55	53.9	3	6	270	0.00	30.156 
12:15	70.9	70.9	70.9	56	54.4	2	5	315	0.00	30.154 
12:20	71.1	71.1	71.1	56	54.6	2	6	270	0.00	30.154 
12:25	71.3	71.3	71.3	55	54.3	1	5	315	0.00	30.154 
12:30	71.8	71.8	71.8	55	54.7	1	4	315	0.00	30.151 
12:35	72.1	72.1	72.1	57	56.0	1	3	315	0.00	30.151 
12:40	72.3	72.3	72.3	54	54.7	2	4	315	0.00	30.151 
12:45	72.3	72.3	72.3	53	54.2	2	5	315	0.00	30.147 
12:50	72.3	72.3	72.3	53	54.2	2	4	315	0.00	30.147 
12:55	72.8	72.8	72.8	53	54.7	1	4	270	0.00	30.147 
13:00	72.5	72.5	72.5	52	53.9	2	5	270	0.00	30.139 
13:05	72.3	72.3	72.3	54	54.7	1	4	292	0.00	30.139 
13:10	72.3	72.3	72.3	52	53.7	3	7	338	0.00	30.139 
13:15	72.7	72.7	72.7	53	54.6	1	3	338	0.00	30.138 
13:20	73.2	73.2	73.2	51	54.0	2	5	315	0.00	30.138 
13:25	73.0	73.0	73.0	53	54.8	1	5	292	0.00	30.138 
13:30	73.2	73.2	73.2	53	55.0	1	3	315	0.00	30.135 
13:35	73.5	73.5	73.5	52	54.8	1	4	315	0.00	30.135 
13:40	73.7	73.7	73.7	48	52.8	2	6	315	0.00	30.135 
13:45	73.2	73.2	73.2	51	54.0	2	5	292	0.00	30.136 
13:50	73.7	73.7	73.7	53	55.5	1	5	338	0.00	30.136 
13:55	74.0	74.0	74.0	48	53.0	2	5	315	0.00	30.136 
14:00	73.9	73.9	73.9	51	54.6	2	5	292	0.00	30.132 
14:05	74.2	74.2	74.2	47	52.7	2	4	292	0.00	30.132 
14:10	74.0	74.0	74.0	48	53.0	2	5	292	0.00	30.132 
14:15	74.2	74.2	74.2	50	54.3	2	4	338	0.00	30.135 
14:20	74.4	74.4	74.4	47	52.8	2	4	338	0.00	30.135 
14:25	74.6	74.6	74.6	48	53.6	1	3	292	0.00	30.135 
14:30	74.7	74.7	74.7	50	54.8	1	3	292	0.00	30.131 
14:35	74.7	74.7	74.7	48	53.7	2	4	338	0.00	30.131 
14:40	74.7	74.7	74.7	47	53.1	2	7	315	0.00	30.131 
14:45	74.6	74.6	74.6	48	53.6	1	4	315	0.00	30.126 
14:50	74.9	74.9	74.9	47	53.3	1	4	315	0.00	30.126 
14:55	75.3	75.3	77.7	48	54.2	1	3	338	0.00	30.126 
15:00	75.4	75.4	77.8	51	56.0	1	4	68	0.00	30.122 
15:05	75.3	75.3	77.7	44	51.9	1	4	338	0.00	30.122 
15:10	75.6	75.6	77.8	46	53.3	1	3	90	0.00	30.122 
15:15	76.1	76.1	78.0	46	53.8	0	3	45	0.00	30.120 
15:20	76.1	76.1	78.1	49	55.5	1	5	292	0.00	30.120 
15:25	75.8	75.8	77.9	45	52.9	1	4	0	0.00	30.120 
15:30	75.1	75.1	77.6	45	52.3	0	2	0	0.00	30.123 
15:35	75.4	75.4	77.7	44	52.0	1	4	292	0.00	30.123 
15:40	74.9	74.9	74.9	44	51.5	1	3	292	0.00	30.123 
15:45	73.9	73.9	73.9	43	50.0	1	3	292	0.00	30.124 
15:50	73.2	73.2	73.2	46	51.2	0	3	292	0.00	30.124 
15:55	73.9	73.9	73.9	47	52.4	1	4	338	0.00	30.124 
16:00	74.7	74.7	74.7	48	53.7	1	3	338	0.00	30.120 
16:05	74.9	74.9	74.9	46	52.7	1	2	338	0.00	30.120 
16:10	74.6	74.6	74.6	46	52.4	1	3	338	0.00	30.120 
16:15	73.9	73.9	73.9	45	51.2	1	4	338	0.00	30.123 
16:20	73.9	73.9	73.9	45	51.2	0	2	338	0.00	30.123 
16:25	74.4	74.4	74.4	45	51.7	1	3	112	0.00	30.123 
16:30	74.9	74.9	74.9	47	53.3	1	4	338	0.00	30.114 
16:35	74.4	74.4	74.4	42	49.8	0	2	45	0.00	30.114 
16:40	74.4	74.4	74.4	45	51.7	2	5	338	0.00	30.114 
16:45	74.7	74.7	74.7	43	50.7	2	5	338	0.00	30.110 
16:50	75.1	75.1	77.6	45	52.3	0	2	135	0.00	30.110 
16:55	75.4	75.4	77.7	45	52.6	1	3	90	0.00	30.110 
17:00	76.0	76.0	78.0	46	53.7	1	4	90	0.00	30.106 
17:05	76.3	76.3	78.1	44	52.8	1	4	248	0.00	30.106 
17:10	76.5	76.5	78.1	43	52.3	1	4	315	0.00	30.106 
17:15	76.5	76.5	78.1	42	51.7	1	4	315	0.00	30.106 
17:20	76.5	76.5	78.1	43	52.3	1	4	112	0.00	30.106 
17:25	75.8	75.8	77.8	41	50.4	1	5	0	0.00	30.106 
17:30	75.1	75.1	77.6	42	50.4	0	3	0	0.00	30.111 
17:35	74.6	74.6	74.6	41	49.3	1	3	0	0.00	30.111 
17:40	74.0	74.0	74.0	43	50.1	0	1	0	0.00	30.111 
17:45	74.2	74.2	74.2	46	52.1	0	2	0	0.00	30.111 
17:50	74.6	74.6	74.6	46	52.4	1	2	0	0.00	30.111 
17:55	74.6	74.6	74.6	43	50.6	2	5	292	0.00	30.111 
18:00	74.4	74.4	74.4	46	52.3	1	4	292	0.00	30.109 
18:05	74.7	74.7	74.7	47	53.1	0	4	292	0.00	30.109 
18:10	75.3	75.3	77.7	45	52.5	1	3	292	0.00	30.109 
18:15	75.4	75.4	77.6	41	50.0	1	2	292	0.00	30.107 
18:20	75.4	75.4	77.7	44	52.0	1	2	292	0.00	30.107 
18:25	75.1	75.1	77.6	41	49.8	1	3	315	0.00	30.107 
18:30	74.9	74.9	74.9	43	50.9	1	6	338	0.00	30.110 
18:35	74.9	74.9	74.9	43	50.9	1	3	338	0.00	30.110 
18:40	74.6	74.6	74.6	43	50.6	1	3	338	0.00	30.110 
18:45	74.4	74.4	74.4	43	50.4	1	2	338	0.00	30.118 
18:50	74.2	74.2	74.2	43	50.2	1	4	270	0.00	30.118 
18:55	74.0	74.0	74.0	43	50.1	0	1	292	0.00	30.118 
19:00	73.9	73.9	73.9	46	51.8	1	4	292	0.00	30.116 
19:05	73.7	73.7	73.7	42	49.2	1	3	270	0.00	30.116 
19:10	73.7	73.7	73.7	43	49.8	0	2	270	0.00	30.116 
19:15	73.9	73.9	73.9	43	50.0	0	3	270	0.00	30.108 
19:20	73.9	73.9	73.9	45	51.2	0	1	270	0.00	30.108 
19:25	73.7	73.7	73.7	46	51.6	1	3	270	0.00	30.108 
19:30	73.5	73.5	73.5	46	51.4	0	1	270	0.00	30.106 
19:35	73.0	73.0	73.0	46	51.0	0	1	270	0.00	30.106 
19:40	72.5	72.5	72.5	47	51.1	0	1	270	0.00	30.106 
19:45	72.1	72.1	72.1	48	51.3	0	1	270	0.00	30.108 
19:50	71.8	71.8	71.8	49	51.6	0	1	270	0.00	30.108 
19:55	71.5	71.5	71.5	49	51.3	0	1	270	0.00	30.108 
20:00	71.3	71.3	71.3	50	51.7	0	1	270	0.00	30.109 
20:05	71.1	71.1	71.1	50	51.5	0	1	270	0.00	30.109 
20:10	70.9	70.9	70.9	51	51.9	0	1	270	0.00	30.109 
20:15	70.6	70.6	70.6	52	52.1	0	0	---	0.00	30.102 
20:20	70.4	70.4	70.4	52	51.9	0	0	---	0.00	30.102 
20:25	70.3	70.3	70.3	53	52.3	0	0	---	0.00	30.102 
20:30	70.1	70.1	70.1	53	52.2	0	0	---	0.00	30.103 
20:35	69.9	69.9	69.9	54	52.5	0	0	---	0.00	30.103 
20:40	69.6	69.6	69.6	54	52.2	0	0	---	0.00	30.103 
20:45	69.4	69.4	69.4	55	52.5	0	0	---	0.00	30.103 
20:50	69.3	69.3	69.3	55	52.4	0	0	---	0.00	30.103 
20:55	68.9	68.9	68.9	55	52.1	0	0	---	0.00	30.103 
21:00	68.8	68.8	68.8	56	52.5	0	0	---	0.00	30.103 
21:05	68.6	68.6	68.6	57	52.7	0	0	---	0.00	30.103 
21:10	68.4	68.4	68.4	57	52.6	0	0	---	0.00	30.103 
21:15	68.3	68.3	68.3	57	52.5	0	0	---	0.00	30.101 
21:20	67.9	67.9	67.9	58	52.6	0	0	---	0.00	30.101 
21:25	67.8	67.8	67.8	59	52.9	0	0	---	0.00	30.101 
21:30	67.6	67.6	67.6	60	53.2	0	0	---	0.00	30.101 
21:35	67.4	67.4	67.4	60	53.0	0	0	---	0.00	30.101 
21:40	67.1	67.1	67.1	61	53.2	0	0	---	0.00	30.101 
21:45	66.9	66.9	66.9	61	53.0	0	0	---	0.00	30.106 
21:50	66.8	66.8	66.8	62	53.4	0	0	---	0.00	30.106 
21:55	66.6	66.6	66.6	64	54.0	0	0	---	0.00	30.106 
22:00	66.3	66.3	66.3	65	54.2	0	0	---	0.00	30.109 
22:05	66.0	66.0	66.0	65	53.9	0	0	---	0.00	30.109 
22:10	65.8	65.8	65.8	67	54.5	0	0	---	0.00	30.109 
22:15	65.5	65.5	65.5	67	54.2	0	0	---	0.00	30.105 
22:20	65.2	65.2	65.2	67	54.0	0	0	---	0.00	30.105 
22:25	64.8	64.8	64.8	68	54.0	0	0	---	0.00	30.105 
22:30	64.5	64.5	64.5	69	54.1	0	0	---	0.00	30.104 
22:35	64.2	64.2	64.2	70	54.2	0	0	---	0.00	30.104 
22:40	63.9	63.9	63.9	72	54.7	0	0	---	0.00	30.104 
22:45	63.7	63.7	63.7	72	54.5	0	0	---	0.00	30.103 
22:50	63.4	63.4	63.4	73	54.6	0	0	---	0.00	30.103 
22:55	63.2	63.2	63.2	75	55.1	0	0	---	0.00	30.103 
23:00	63.1	63.1	63.1	75	55.0	0	0	---	0.00	30.104 
23:05	62.9	62.9	62.9	76	55.2	0	0	---	0.00	30.104 
23:10	62.7	62.7	62.7	77	55.4	0	0	---	0.00	30.104 
23:15	62.4	62.4	62.4	77	55.1	0	0	---	0.00	30.100 
23:20	62.3	62.3	62.3	78	55.3	0	0	---	0.00	30.100 
23:25	62.1	62.1	62.1	77	54.8	0	0	---	0.00	30.100 
23:30	62.0	62.0	62.0	78	55.1	0	0	---	0.00	30.103 
23:35	61.6	61.6	61.6	78	54.7	0	0	---	0.00	30.103 
23:40	61.5	61.5	61.5	78	54.6	0	0	---	0.00	30.103 
23:45	61.3	61.3	61.3	79	54.7	0	0	---	0.00	30.104 
23:50	61.0	61.0	61.0	80	54.8	0	0	---	0.00	30.104 
23:55	60.9	60.9	60.9	80	54.7	0	0	---	0.00	30.104 

CoCoRaHS
IN-AL-39
A2 Web Hosting
Creative Commons License
GoDaddy
search engine by freefind advanced

loaded 2018-11-17 06:53:48 • last modified 2010-11-18 10:43:29
Privacy PolicyDisclaimer
• wx.awcolley.com is powered by PmWiki v.2002016 •
• all content (unless otherwise noted) © 2018 A W Colley